Time;durP1;ratioP1;P1;durP2;ratioP2;P2;SDS_P1;SDS_P2;PMS_P1;PMS_P2;Temp;Humidity;BMP_temperature;BMP_pressure;BME280_temperature;BME280_humidity;BME280_pressure;Samples;Min_cycle;Max_cycle;Signal;HPM_P1;HPM_P2
2021/12/16 00:04:01;;;;;;;78.67;16.43;;;-0.20;99.90;;;;;;5067710;28;20434;-48
2021/12/16 00:09:13;;;;;;;15.10;9.03;;;-0.30;99.90;;;;;;5036238;28;20442;-49
2021/12/16 00:28:59;;;;;;;24.30;10.13;;;-0.10;99.90;;;;;;5071050;28;20982;-49
2021/12/16 00:31:44;;;;;;;83.70;17.20;;;-0.20;99.90;;;;;;5052267;28;20421;-50
2021/12/16 00:34:11;;;;;;;47.70;10.97;;;-0.10;99.90;;;;;;5069008;28;20443;-49
2021/12/16 00:36:40;;;;;;;71.97;15.10;;;-0.40;99.90;;;;;;5069991;28;21052;-47
2021/12/16 00:39:10;;;;;;;55.63;12.03;;;-0.50;99.90;;;;;;5070002;28;20533;-51
2021/12/16 00:41:40;;;;;;;94.03;13.43;;;-0.50;99.90;;;;;;5070298;28;20521;-52
2021/12/16 00:44:18;;;;;;;17.93;7.77;;;-0.40;99.90;;;;;;5070481;28;20445;-49
2021/12/16 00:46:57;;;;;;;81.43;13.20;;;-0.30;99.90;;;;;;5074780;28;20445;-49
2021/12/16 00:49:35;;;;;;;141.80;18.87;;;-0.30;99.90;;;;;;5069082;28;20470;-52
2021/12/16 00:55:00;;;;;;;56.60;11.30;;;-0.40;99.90;;;;;;5070262;28;20932;-48
2021/12/16 00:57:27;;;;;;;37.60;11.10;;;-0.40;99.90;;;;;;5069403;28;20562;-47
2021/12/16 00:59:58;;;;;;;60.90;11.90;;;-0.20;99.90;;;;;;5069419;28;20477;-49
2021/12/16 01:02:44;;;;;;;39.17;11.30;;;-0.10;99.90;;;;;;5067011;28;20497;-51
2021/12/16 01:35:48;;;;;;;15.77;6.60;;;0.40;99.90;;;;;;5069560;28;20601;-52
2021/12/16 01:49:48;;;;;;;11.17;5.97;;;0.60;99.90;;;;;;5058297;28;20798;-49
2021/12/16 01:55:08;;;;;;;18.37;11.10;;;0.60;99.90;;;;;;5062986;28;20586;-49
2021/12/16 01:57:40;;;;;;;22.33;10.07;;;0.60;99.90;;;;;;5069812;28;20481;-49
2021/12/16 02:00:11;;;;;;;19.27;9.10;;;0.70;99.90;;;;;;5067200;28;20808;-49
2021/12/16 02:02:44;;;;;;;14.83;8.00;;;0.70;99.90;;;;;;5069413;28;20489;-49
2021/12/16 02:05:28;;;;;;;19.83;6.23;;;0.70;99.90;;;;;;5068327;28;20942;-49
2021/12/16 02:10:48;;;;;;;16.47;6.47;;;0.50;99.90;;;;;;5064496;28;20757;-49
2021/12/16 02:13:37;;;;;;;25.70;6.73;;;0.50;99.90;;;;;;5069443;28;20454;-49
2021/12/16 02:30:24;;;;;;;4.97;4.47;;;0.30;99.90;;;;;;5052850;28;20413;-49
2021/12/16 02:32:56;;;;;;;8.00;4.20;;;0.40;99.90;;;;;;5068401;28;20442;-49
2021/12/16 02:35:32;;;;;;;9.27;5.57;;;0.50;99.90;;;;;;5068603;28;20939;-50
2021/12/16 02:38:03;;;;;;;12.50;5.07;;;0.60;99.90;;;;;;5072856;28;20491;-49
2021/12/16 02:40:31;;;;;;;8.50;5.30;;;0.10;99.90;;;;;;5071802;28;20445;-51
2021/12/16 02:43:05;;;;;;;4.93;4.43;;;0.00;99.90;;;;;;5071546;28;20545;-49
2021/12/16 02:48:31;;;;;;;5.87;4.90;;;-0.50;99.90;;;;;;5069775;28;20445;-49
2021/12/16 02:50:59;;;;;;;6.53;5.60;;;-0.30;99.90;;;;;;5069636;28;20946;-49
2021/12/16 02:53:27;;;;;;;15.80;5.63;;;-0.10;99.90;;;;;;5072092;28;20473;-51
2021/12/16 02:55:55;;;;;;;12.53;5.63;;;0.00;99.90;;;;;;5071246;28;20442;-49
2021/12/16 02:58:22;;;;;;;8.27;5.10;;;0.20;99.90;;;;;;5066546;28;20558;-49
2021/12/16 03:00:54;;;;;;;10.40;4.83;;;0.30;99.90;;;;;;5070709;28;20480;-49
2021/12/16 03:03:21;;;;;;;6.07;4.80;;;0.30;99.90;;;;;;5073238;28;20476;-49
2021/12/16 03:05:48;;;;;;;10.10;5.20;;;0.40;99.90;;;;;;5070504;28;20503;-51
2021/12/16 03:08:15;;;;;;;9.77;4.70;;;0.50;99.90;;;;;;5071883;28;21570;-48
2021/12/16 03:11:06;;;;;;;17.83;5.70;;;0.40;99.90;;;;;;5070807;28;20473;-51
2021/12/16 03:13:40;;;;;;;4.63;4.23;;;0.20;99.90;;;;;;5069439;28;20880;-49
2021/12/16 03:16:19;;;;;;;17.80;5.43;;;0.30;99.90;;;;;;5070449;28;20972;-49
2021/12/16 03:18:52;;;;;;;10.07;5.73;;;0.30;99.90;;;;;;5072198;28;20495;-49
2021/12/16 03:21:26;;;;;;;6.37;5.03;;;0.40;99.90;;;;;;5072289;28;20454;-49
2021/12/16 03:24:21;;;;;;;20.53;6.03;;;0.50;99.90;;;;;;5070934;28;20447;-49
2021/12/16 03:32:43;;;;;;;4.80;4.40;;;0.50;99.90;;;;;;5080933;28;20433;-57
2021/12/16 03:35:27;;;;;;;5.03;4.63;;;0.60;99.90;;;;;;5092527;28;20458;-58
2021/12/16 03:37:56;;;;;;;8.40;4.83;;;0.60;99.90;;;;;;5081396;28;20573;-58
2021/12/16 03:40:25;;;;;;;10.87;4.87;;;0.60;99.90;;;;;;5061287;28;20462;-57
2021/12/16 03:42:56;;;;;;;8.93;5.03;;;0.60;99.90;;;;;;5070644;28;20447;-57
2021/12/16 03:48:16;;;;;;;13.20;6.00;;;0.60;99.90;;;;;;5068194;28;20576;-57
2021/12/16 03:50:43;;;;;;;14.20;5.60;;;0.60;99.90;;;;;;5063262;28;20952;-57
2021/12/16 03:53:13;;;;;;;12.80;5.67;;;0.40;99.90;;;;;;5066475;28;20522;-57
2021/12/16 03:55:40;;;;;;;20.30;5.27;;;0.50;99.90;;;;;;5066901;28;20481;-57
2021/12/16 03:58:07;;;;;;;13.17;5.90;;;0.30;99.90;;;;;;5069933;28;20522;-57
2021/12/16 04:00:42;;;;;;;8.17;5.20;;;0.20;99.90;;;;;;5070740;28;20988;-58
2021/12/16 04:03:09;;;;;;;11.60;4.60;;;-0.10;99.90;;;;;;5074418;28;20452;-57
2021/12/16 04:05:37;;;;;;;5.57;4.93;;;-0.20;99.90;;;;;;5067660;28;20477;-58
2021/12/16 04:08:05;;;;;;;5.60;4.97;;;-0.10;99.90;;;;;;5068236;28;20496;-57
2021/12/16 04:10:49;;;;;;;16.53;6.23;;;-0.30;99.90;;;;;;5066175;28;21028;-57
2021/12/16 04:13:19;;;;;;;7.00;4.60;;;-0.70;99.90;;;;;;5069398;28;20484;-57
2021/12/16 04:15:48;;;;;;;5.40;4.90;;;-0.50;99.90;;;;;;5060954;28;21027;-57
2021/12/16 04:18:15;;;;;;;14.13;5.23;;;-0.30;99.90;;;;;;5070970;28;20576;-58
2021/12/16 04:20:43;;;;;;;12.90;3.97;;;-0.10;99.90;;;;;;5063481;28;20469;-57
2021/12/16 04:23:11;;;;;;;10.70;5.20;;;-0.20;99.90;;;;;;5057971;28;20518;-57
2021/12/16 04:25:41;;;;;;;5.23;4.73;;;-0.10;99.90;;;;;;5065368;28;20521;-59
2021/12/16 04:28:13;;;;;;;6.23;5.00;;;-0.20;99.90;;;;;;5062837;28;20494;-58
2021/12/16 04:30:40;;;;;;;5.87;4.73;;;0.00;99.90;;;;;;5055776;28;20440;-58
2021/12/16 04:33:09;;;;;;;13.50;4.80;;;0.10;99.90;;;;;;5065229;28;20517;-58
2021/12/16 04:35:36;;;;;;;8.03;4.83;;;0.10;99.90;;;;;;5059310;28;20548;-58
2021/12/16 04:38:04;;;;;;;5.37;4.80;;;0.20;99.90;;;;;;5067549;28;20561;-57
2021/12/16 04:40:32;;;;;;;6.60;4.30;;;0.30;99.90;;;;;;5069016;28;20540;-56
2021/12/16 04:43:01;;;;;;;13.73;6.20;;;0.30;99.90;;;;;;5071730;28;20891;-59
2021/12/16 04:45:30;;;;;;;5.37;4.17;;;0.30;99.90;;;;;;5064613;28;20482;-57
2021/12/16 04:47:57;;;;;;;6.07;4.10;;;0.40;99.90;;;;;;5069168;28;20549;-57
2021/12/16 04:50:26;;;;;;;8.10;4.73;;;0.40;99.90;;;;;;5064148;28;20487;-57
2021/12/16 04:52:53;;;;;;;4.13;3.73;;;0.40;99.90;;;;;;5069246;28;20523;-57
2021/12/16 04:55:21;;;;;;;4.53;3.83;;;0.40;99.90;;;;;;5070630;28;20533;-57
2021/12/16 04:57:50;;;;;;;5.80;4.20;;;0.50;99.90;;;;;;5053597;28;20560;-58
2021/12/16 05:00:21;;;;;;;6.20;4.40;;;0.50;99.90;;;;;;5059029;28;20481;-58
2021/12/16 05:02:49;;;;;;;17.77;5.17;;;0.60;99.90;;;;;;5064188;28;20475;-57
2021/12/16 05:05:17;;;;;;;5.20;4.03;;;0.40;99.90;;;;;;5070479;28;20474;-57
2021/12/16 05:07:47;;;;;;;5.73;4.10;;;0.50;99.90;;;;;;5067238;28;20550;-58
2021/12/16 05:10:16;;;;;;;9.80;4.83;;;0.50;99.90;;;;;;5063144;28;20501;-57
2021/12/16 05:12:47;;;;;;;5.90;4.73;;;0.40;99.90;;;;;;5069216;28;20446;-57
2021/12/16 05:15:17;;;;;;;5.33;4.30;;;0.50;99.90;;;;;;5069210;28;21002;-58
2021/12/16 05:17:49;;;;;;;5.53;4.30;;;0.60;99.90;;;;;;5068932;28;20493;-59
2021/12/16 05:20:17;;;;;;;6.13;4.53;;;0.60;99.90;;;;;;5070772;28;20435;-58
2021/12/16 05:25:36;;;;;;;5.90;4.03;;;0.60;99.90;;;;;;5056084;28;20441;-58
2021/12/16 05:28:04;;;;;;;5.33;4.90;;;0.60;99.90;;;;;;5062752;28;20840;-58
2021/12/16 05:30:32;;;;;;;5.43;4.80;;;0.70;99.90;;;;;;5065296;28;20532;-58
2021/12/16 05:32:59;;;;;;;7.77;5.03;;;0.70;99.90;;;;;;5053961;28;20481;-57
2021/12/16 05:35:27;;;;;;;4.73;4.33;;;0.60;99.90;;;;;;5063254;28;20531;-58
2021/12/16 05:37:56;;;;;;;4.23;3.83;;;0.70;99.90;;;;;;5063278;28;20529;-58
2021/12/16 05:40:25;;;;;;;4.30;3.80;;;0.70;99.90;;;;;;5063942;28;20480;-57
2021/12/16 05:42:53;;;;;;;3.97;3.60;;;0.70;99.90;;;;;;5070339;28;21011;-58
2021/12/16 05:45:22;;;;;;;4.93;4.43;;;0.80;99.90;;;;;;5064512;28;21012;-57
2021/12/16 05:47:49;;;;;;;6.20;4.33;;;0.80;99.90;;;;;;5057807;28;20474;-58
2021/12/16 05:50:16;;;;;;;4.60;4.20;;;0.80;99.90;;;;;;5069731;28;20989;-59
2021/12/16 05:52:43;;;;;;;5.03;4.07;;;0.80;99.90;;;;;;5071521;28;20485;-58
2021/12/16 05:55:14;;;;;;;3.43;3.13;;;0.80;99.90;;;;;;5055357;28;20478;-58
2021/12/16 05:57:43;;;;;;;4.53;3.50;;;0.80;99.90;;;;;;5065407;28;20509;-57
2021/12/16 06:00:14;;;;;;;3.50;3.20;;;0.80;99.90;;;;;;5062440;28;20488;-58
2021/12/16 06:02:41;;;;;;;3.57;3.27;;;0.80;99.90;;;;;;5057597;28;20871;-65
2021/12/16 06:05:09;;;;;;;4.67;3.70;;;0.80;99.90;;;;;;5062744;28;20787;-59
2021/12/16 06:07:36;;;;;;;4.17;3.87;;;0.60;99.90;;;;;;5066284;28;21007;-58
2021/12/16 06:10:04;;;;;;;5.17;4.50;;;0.60;99.90;;;;;;5068870;28;20515;-58
2021/12/16 06:12:33;;;;;;;5.90;4.50;;;0.70;99.90;;;;;;5073430;28;20437;-58
2021/12/16 06:15:15;;;;;;;5.07;4.57;;;0.70;99.90;;;;;;5055022;28;20446;-58
2021/12/16 06:28:48;;;;;;;7.47;4.30;;;0.70;99.90;;;;;;5035734;28;20808;-57
2021/12/16 06:31:16;;;;;;;8.87;5.20;;;0.70;99.90;;;;;;5072155;28;20523;-57
2021/12/16 06:33:43;;;;;;;4.93;4.03;;;0.70;99.90;;;;;;5070914;28;20433;-58
2021/12/16 06:36:11;;;;;;;4.60;4.17;;;0.70;99.90;;;;;;5068693;28;20467;-57
2021/12/16 06:38:38;;;;;;;4.70;4.20;;;0.70;99.90;;;;;;5070766;28;20562;-57
2021/12/16 06:41:05;;;;;;;4.73;3.70;;;0.70;99.90;;;;;;5071061;28;20871;-58
2021/12/16 06:43:33;;;;;;;6.50;3.90;;;0.70;99.90;;;;;;5070938;28;20945;-56
2021/12/16 06:46:05;;;;;;;5.87;4.57;;;0.60;99.90;;;;;;5058676;28;20447;-57
2021/12/16 06:48:36;;;;;;;4.83;4.40;;;0.50;99.90;;;;;;5069411;28;20462;-57
2021/12/16 06:51:08;;;;;;;7.90;5.27;;;0.50;99.90;;;;;;5064840;28;20440;-58
2021/12/16 06:53:47;;;;;;;5.40;4.90;;;0.40;99.90;;;;;;5064853;28;20466;-58
2021/12/16 06:56:19;;;;;;;4.97;4.50;;;0.40;99.90;;;;;;5066728;28;20560;-57
2021/12/16 06:58:50;;;;;;;7.63;4.60;;;0.40;99.90;;;;;;5069170;28;20568;-59
2021/12/16 07:01:31;;;;;;;4.90;4.40;;;0.50;99.90;;;;;;5066200;28;20448;-57
2021/12/16 07:03:59;;;;;;;4.17;3.80;;;0.50;99.90;;;;;;5067176;28;20541;-57
2021/12/16 07:06:28;;;;;;;6.03;4.40;;;0.40;99.90;;;;;;5063153;28;20472;-57
2021/12/16 07:08:58;;;;;;;5.67;4.17;;;0.50;99.90;;;;;;5056702;28;20519;-57
2021/12/16 07:11:26;;;;;;;4.27;3.97;;;0.50;99.90;;;;;;5070739;28;20964;-58
2021/12/16 07:13:58;;;;;;;7.00;4.63;;;0.60;99.90;;;;;;5070848;28;20458;-58
2021/12/16 07:16:28;;;;;;;5.37;4.47;;;0.70;99.90;;;;;;5057046;28;20445;-56
2021/12/16 07:18:56;;;;;;;6.10;4.83;;;0.70;99.90;;;;;;5065569;28;20490;-57
2021/12/16 07:21:23;;;;;;;6.63;5.77;;;0.70;99.90;;;;;;5062678;28;20482;-57
2021/12/16 07:23:51;;;;;;;4.20;3.80;;;0.80;99.90;;;;;;5071444;28;20522;-57
2021/12/16 07:26:18;;;;;;;4.50;4.10;;;0.80;99.90;;;;;;5069130;28;20531;-58
2021/12/16 07:28:45;;;;;;;4.37;3.97;;;0.80;99.90;;;;;;5060598;28;20896;-58
2021/12/16 07:31:12;;;;;;;6.20;5.13;;;0.80;99.90;;;;;;5058587;28;20491;-58
2021/12/16 07:33:40;;;;;;;5.87;5.27;;;0.80;99.90;;;;;;5067948;28;20533;-58
2021/12/16 07:36:07;;;;;;;5.20;4.67;;;0.90;99.90;;;;;;5060779;28;20530;-58
2021/12/16 07:38:34;;;;;;;6.60;4.63;;;0.90;99.90;;;;;;5071697;28;20567;-58
2021/12/16 07:41:01;;;;;;;5.50;4.13;;;0.90;99.90;;;;;;5068642;28;20457;-57
2021/12/16 07:43:55;;;;;;;5.20;4.70;;;0.90;99.90;;;;;;5064567;28;20519;-57
2021/12/16 07:46:22;;;;;;;6.53;5.87;;;0.90;99.90;;;;;;5062735;28;20457;-57
2021/12/16 07:48:50;;;;;;;7.13;5.67;;;0.80;99.90;;;;;;5065196;28;20551;-58
2021/12/16 07:51:20;;;;;;;8.93;7.77;;;0.90;99.90;;;;;;5069201;28;20539;-58
2021/12/16 07:53:47;;;;;;;7.03;5.50;;;0.90;99.90;;;;;;5058939;28;20801;-59
2021/12/16 07:56:14;;;;;;;8.87;4.80;;;0.90;99.90;;;;;;5064597;28;20563;-58
2021/12/16 07:58:41;;;;;;;6.33;5.03;;;0.90;99.90;;;;;;5064869;28;20567;-58
2021/12/16 08:01:08;;;;;;;7.70;6.20;;;1.00;99.90;;;;;;5072917;28;20940;-58
2021/12/16 08:03:37;;;;;;;7.10;6.40;;;1.00;99.90;;;;;;5068643;28;21048;-58
2021/12/16 08:06:09;;;;;;;6.87;4.73;;;1.00;99.90;;;;;;5070469;28;21106;-58
2021/12/16 08:08:36;;;;;;;8.97;5.57;;;1.00;99.90;;;;;;5068990;28;20520;-58
2021/12/16 08:11:04;;;;;;;7.73;5.37;;;1.00;99.90;;;;;;5066463;28;20483;-58
2021/12/16 08:13:31;;;;;;;7.80;5.80;;;1.00;99.90;;;;;;5067909;28;20499;-58
2021/12/16 08:15:59;;;;;;;8.93;5.93;;;1.00;99.90;;;;;;5069443;28;20523;-62
2021/12/16 08:18:26;;;;;;;6.77;5.80;;;1.00;99.90;;;;;;5069254;28;20535;-58
2021/12/16 08:20:53;;;;;;;8.07;5.63;;;1.00;99.90;;;;;;5069007;28;20449;-58
2021/12/16 08:23:22;;;;;;;8.50;5.63;;;1.00;99.90;;;;;;5065443;28;20484;-60
2021/12/16 08:25:49;;;;;;;7.80;6.17;;;1.00;99.90;;;;;;5068417;28;20547;-58
2021/12/16 08:28:16;;;;;;;6.20;5.07;;;1.00;99.90;;;;;;5066747;28;20547;-59
2021/12/16 08:30:47;;;;;;;5.83;5.23;;;1.10;99.90;;;;;;5070706;28;20495;-58
2021/12/16 08:33:15;;;;;;;6.50;4.90;;;1.10;99.90;;;;;;5069320;28;20542;-62
2021/12/16 08:35:45;;;;;;;6.17;5.57;;;1.10;99.90;;;;;;5067362;28;20462;-58
2021/12/16 08:38:16;;;;;;;8.60;5.93;;;1.10;99.90;;;;;;5067041;28;20512;-58
2021/12/16 08:40:47;;;;;;;5.73;4.97;;;1.10;99.90;;;;;;5069155;28;20492;-57
2021/12/16 08:43:15;;;;;;;6.50;5.90;;;1.10;99.90;;;;;;5062174;28;20524;-58
2021/12/16 08:45:43;;;;;;;7.90;5.50;;;1.10;99.90;;;;;;5070670;28;20498;-58
2021/12/16 08:48:12;;;;;;;5.33;4.83;;;1.10;99.90;;;;;;5069299;28;20550;-58
2021/12/16 08:50:42;;;;;;;7.60;5.63;;;1.00;99.90;;;;;;5068563;28;20852;-59
2021/12/16 08:53:11;;;;;;;6.80;6.10;;;0.90;99.90;;;;;;5067246;28;20487;-58
2021/12/16 08:55:40;;;;;;;6.07;5.47;;;0.90;99.90;;;;;;5069672;28;20558;-63
2021/12/16 08:58:09;;;;;;;7.30;5.97;;;1.00;99.90;;;;;;5068356;28;20510;-58
2021/12/16 09:00:40;;;;;;;8.07;6.23;;;1.00;99.90;;;;;;5067327;28;20538;-58
2021/12/16 09:03:08;;;;;;;9.10;6.30;;;0.90;99.90;;;;;;5070261;28;20987;-59
2021/12/16 09:05:35;;;;;;;8.40;6.40;;;0.70;99.90;;;;;;5065443;28;20473;-58
2021/12/16 09:08:03;;;;;;;8.97;6.70;;;0.60;99.90;;;;;;5064917;28;20491;-58
2021/12/16 09:10:34;;;;;;;6.73;5.70;;;0.60;99.90;;;;;;5066102;28;20532;-58
2021/12/16 09:13:04;;;;;;;9.37;6.27;;;0.70;99.90;;;;;;5064987;28;20494;-58
2021/12/16 09:15:35;;;;;;;10.70;6.93;;;0.80;99.90;;;;;;5067921;28;20482;-58
2021/12/16 09:18:05;;;;;;;7.10;6.40;;;0.90;99.90;;;;;;5068596;28;20904;-58
2021/12/16 09:20:32;;;;;;;10.70;6.90;;;0.90;99.90;;;;;;5059451;28;20483;-58
2021/12/16 09:23:00;;;;;;;6.00;5.40;;;1.00;99.90;;;;;;5066247;28;20481;-58
2021/12/16 09:25:28;;;;;;;6.70;5.90;;;1.10;99.90;;;;;;5063624;28;20477;-58
2021/12/16 09:27:55;;;;;;;7.37;5.50;;;1.20;99.90;;;;;;5085135;22;20590;-90
2021/12/16 09:30:26;;;;;;;8.33;6.80;;;1.20;99.90;;;;;;5112199;28;20432;-90
2021/12/16 09:32:59;;;;;;;16.77;8.17;;;1.30;99.90;;;;;;5096253;28;20431;-90
2021/12/16 09:35:28;;;;;;;12.90;10.73;;;1.30;99.90;;;;;;5095964;28;20446;-90
2021/12/16 09:37:59;;;;;;;15.40;10.50;;;2.80;99.90;;;;;;5088752;28;20441;-91
2021/12/16 09:40:29;;;;;;;7.07;6.10;;;4.60;99.90;;;;;;5088850;28;20463;-91
2021/12/16 09:42:58;;;;;;;11.40;5.97;;;5.80;99.90;;;;;;5085471;28;20463;-89
2021/12/16 09:45:25;;;;;;;7.40;5.80;;;5.90;99.90;;;;;;5091760;28;20439;-90
2021/12/16 09:47:55;;;;;;;12.73;9.60;;;5.60;99.90;;;;;;5104398;28;20475;-91
2021/12/16 09:50:30;;;;;;;4.90;4.40;;;6.10;99.90;;;;;;5093866;28;20480;-92
2021/12/16 09:53:01;;;;;;;5.83;5.30;;;6.40;99.90;;;;;;5088060;28;20471;-90
2021/12/16 09:55:34;;;;;;;5.63;5.10;;;6.20;99.90;;;;;;5085599;28;20420;-91
2021/12/16 09:58:05;;;;;;;4.03;3.40;;;5.80;99.90;;;;;;5095565;28;20470;-90
2021/12/16 10:00:37;;;;;;;5.10;4.57;;;5.40;99.90;;;;;;5092089;28;20469;-92
2021/12/16 10:03:05;;;;;;;5.00;4.17;;;4.90;99.90;;;;;;5089558;28;20465;-91
2021/12/16 10:05:36;;;;;;;5.70;5.10;;;4.60;99.90;;;;;;5098466;28;20442;-90
2021/12/16 10:08:10;;;;;;;5.10;3.90;;;4.30;99.90;;;;;;5086515;28;20448;-90
2021/12/16 10:10:47;;;;;;;4.20;3.90;;;4.10;99.90;;;;;;5093996;28;20448;-91
2021/12/16 10:13:21;;;;;;;4.97;4.43;;;3.60;99.90;;;;;;5100413;28;20436;-91
2021/12/16 10:18:35;;;;;;;6.90;6.20;;;2.90;99.90;;;;;;5091640;28;20459;-90
2021/12/16 10:21:07;;;;;;;7.47;5.40;;;3.50;99.90;;;;;;5095496;28;20444;-90
2021/12/16 10:23:40;;;;;;;8.90;6.30;;;4.30;99.90;;;;;;5086576;28;20464;-89
2021/12/16 10:26:15;;;;;;;5.70;5.20;;;5.60;99.90;;;;;;5087593;28;20523;-90
2021/12/16 10:28:53;;;;;;;6.73;5.27;;;6.80;99.90;;;;;;5104838;28;20476;-89
2021/12/16 10:31:31;;;;;;;4.07;3.73;;;7.80;99.90;;;;;;5087521;28;20498;-88
2021/12/16 10:34:07;;;;;;;4.67;4.27;;;7.90;99.90;;;;;;5088648;28;20452;-90
2021/12/16 10:36:39;;;;;;;4.67;4.27;;;7.50;99.90;;;;;;5090181;28;20448;-89
2021/12/16 10:39:10;;;;;;;10.87;7.40;;;6.90;99.90;;;;;;5085875;28;20476;-89
2021/12/16 10:41:41;;;;;;;6.00;4.77;;;6.50;99.90;;;;;;5090184;28;20460;-89
2021/12/16 10:44:12;;;;;;;4.97;4.50;;;7.00;99.90;;;;;;5087661;28;20999;-91
2021/12/16 10:47:00;;;;;;;8.20;6.20;;;7.90;99.90;;;;;;5085767;28;20470;-88
2021/12/16 10:49:30;;;;;;;11.10;7.70;;;8.70;99.90;;;;;;5082415;28;20512;-87
2021/12/16 10:52:01;;;;;;;5.80;4.53;;;8.80;99.90;;;;;;5072341;28;20480;-87
2021/12/16 10:54:30;;;;;;;5.23;4.33;;;9.20;99.90;;;;;;5078436;28;20447;-86
2021/12/16 10:57:09;;;;;;;5.00;4.47;;;9.00;99.90;;;;;;5079854;28;20512;-88
2021/12/16 10:59:39;;;;;;;4.30;3.90;;;8.30;99.90;;;;;;5080495;28;20456;-88
2021/12/16 11:02:09;;;;;;;5.30;4.90;;;7.60;99.90;;;;;;5090428;28;20490;-88
2021/12/16 11:04:44;;;;;;;5.33;4.97;;;7.00;99.90;;;;;;5088405;28;20434;-89
2021/12/16 11:07:17;;;;;;;4.33;3.93;;;6.30;99.90;;;;;;5089771;28;20444;-87
2021/12/16 11:09:57;;;;;;;5.43;4.80;;;5.80;99.90;;;;;;5093680;28;20463;-89
2021/12/16 11:12:32;;;;;;;5.60;5.20;;;5.30;99.90;;;;;;5091468;28;20464;-86
2021/12/16 11:15:02;;;;;;;4.30;4.00;;;4.90;99.90;;;;;;5086997;28;20519;-88
2021/12/16 11:17:36;;;;;;;4.83;4.40;;;4.60;99.90;;;;;;5096934;28;20443;-89
2021/12/16 11:20:11;;;;;;;5.23;4.73;;;4.40;99.90;;;;;;5091170;28;20463;-88
2021/12/16 11:22:40;;;;;;;4.80;4.40;;;4.10;99.90;;;;;;5093874;28;20550;-88
2021/12/16 11:25:18;;;;;;;4.80;4.30;;;3.90;99.90;;;;;;5095409;28;20457;-88
2021/12/16 11:27:49;;;;;;;4.90;4.47;;;3.80;99.90;;;;;;5089741;28;20445;-89
2021/12/16 11:30:42;;;;;;;4.87;4.47;;;3.70;99.90;;;;;;5092893;28;20432;-87
2021/12/16 11:33:26;;;;;;;5.53;4.93;;;3.50;99.90;;;;;;5092374;28;20566;-88
2021/12/16 11:36:05;;;;;;;5.07;4.57;;;3.40;99.90;;;;;;5094042;28;20457;-90
2021/12/16 11:38:37;;;;;;;5.17;4.63;;;3.30;99.90;;;;;;5092119;28;20460;-89
2021/12/16 11:41:12;;;;;;;5.00;4.50;;;3.10;99.90;;;;;;5094277;28;20471;-89
2021/12/16 11:43:54;;;;;;;4.77;4.30;;;3.00;99.90;;;;;;5093205;28;20677;-90
2021/12/16 11:46:30;;;;;;;4.60;4.20;;;2.90;99.90;;;;;;5092506;28;20444;-88
2021/12/16 11:49:13;;;;;;;6.10;4.73;;;2.90;99.90;;;;;;5093995;28;20463;-91
2021/12/16 11:51:44;;;;;;;5.67;4.83;;;2.90;99.90;;;;;;5096852;28;20448;-89
2021/12/16 11:54:22;;;;;;;6.10;5.17;;;2.90;99.90;;;;;;5093105;28;20773;-89
2021/12/16 11:56:56;;;;;;;5.37;4.73;;;2.80;99.90;;;;;;5095279;28;20444;-90
2021/12/16 11:59:28;;;;;;;5.77;5.27;;;2.80;99.90;;;;;;5096205;28;20483;-91
2021/12/16 12:01:55;;;;;;;5.43;4.90;;;2.80;99.90;;;;;;5087782;28;20766;-89
2021/12/16 12:04:29;;;;;;;5.80;5.30;;;2.90;99.90;;;;;;5092660;28;20454;-89
2021/12/16 12:07:13;;;;;;;5.37;4.87;;;2.90;99.90;;;;;;5097311;28;20424;-90
2021/12/16 12:09:45;;;;;;;6.03;5.43;;;2.90;99.90;;;;;;5094447;28;20463;-89
2021/12/16 12:12:12;;;;;;;6.93;5.20;;;2.80;99.90;;;;;;5094262;28;20448;-90
2021/12/16 12:14:43;;;;;;;6.10;5.53;;;2.80;99.90;;;;;;5095709;28;20434;-90
2021/12/16 12:17:16;;;;;;;6.23;5.10;;;2.80;99.90;;;;;;5090365;28;20496;-89
2021/12/16 12:19:49;;;;;;;7.17;6.03;;;2.80;99.90;;;;;;5093845;28;20472;-90
2021/12/16 12:22:24;;;;;;;7.27;5.53;;;2.90;99.90;;;;;;5097352;28;20468;-90
2021/12/16 12:24:54;;;;;;;6.40;5.80;;;2.80;99.90;;;;;;5095760;28;20458;-91
2021/12/16 12:27:26;;;;;;;7.00;5.70;;;2.90;99.90;;;;;;5094226;28;20468;-89
2021/12/16 12:30:01;;;;;;;8.77;5.67;;;2.80;99.90;;;;;;5088593;28;20448;-90
2021/12/16 12:32:36;;;;;;;6.97;5.90;;;2.90;99.90;;;;;;5095293;28;20444;-90
2021/12/16 12:35:10;;;;;;;6.57;5.97;;;2.90;99.90;;;;;;5087638;28;20469;-89
2021/12/16 12:37:40;;;;;;;7.17;5.53;;;2.90;99.90;;;;;;5091113;28;20485;-90
2021/12/16 12:40:17;;;;;;;6.80;5.57;;;2.90;99.90;;;;;;5094890;28;20453;-91
2021/12/16 12:42:46;;;;;;;6.77;5.90;;;2.90;99.90;;;;;;5090949;28;20444;-90
2021/12/16 12:45:16;;;;;;;123.60;83.70;;;2.90;99.90;;;;;;5087595;28;20452;-90
2021/12/16 12:47:50;;;;;;;46.63;31.83;;;2.90;99.90;;;;;;5083129;28;20438;-91
2021/12/16 12:50:26;;;;;;;20.87;17.73;;;2.90;99.90;;;;;;5083839;28;20437;-89
2021/12/16 12:52:54;;;;;;;25.70;21.33;;;2.90;99.90;;;;;;5089015;28;20458;-89
2021/12/16 12:55:29;;;;;;;6.33;5.73;;;2.90;99.90;;;;;;5087293;28;20451;-90
2021/12/16 12:58:07;;;;;;;5.97;5.37;;;2.90;99.90;;;;;;5088215;28;20428;-90
2021/12/16 13:00:37;;;;;;;6.20;4.63;;;2.90;99.90;;;;;;5087900;28;20483;-90
2021/12/16 13:03:07;;;;;;;11.47;5.93;;;2.80;99.90;;;;;;5089872;28;20448;-91
2021/12/16 13:05:36;;;;;;;10.30;6.80;;;2.80;99.90;;;;;;5089973;28;20440;-90
2021/12/16 13:08:06;;;;;;;6.53;5.90;;;2.80;99.90;;;;;;5091102;28;20437;-90
2021/12/16 13:10:39;;;;;;;7.20;6.60;;;2.80;99.90;;;;;;5094956;28;20452;-89
2021/12/16 13:16:10;;;;;;;6.43;5.83;;;2.80;99.90;;;;;;5087629;28;20416;-90
2021/12/16 13:24:46;;;;;;;8.40;7.50;;;2.80;99.90;;;;;;5089138;28;20443;-90
2021/12/16 13:27:34;;;;;;;11.10;7.90;;;2.70;99.90;;;;;;5092028;28;20481;-90
2021/12/16 13:30:19;;;;;;;7.80;7.10;;;2.70;99.90;;;;;;5085793;28;20472;-91
2021/12/16 13:36:03;;;;;;;13.77;9.73;;;2.70;99.90;;;;;;5074921;28;20475;-89
2021/12/16 13:38:40;;;;;;;21.73;16.80;;;2.70;99.90;;;;;;5091428;28;20460;-90
2021/12/16 13:41:09;;;;;;;25.87;17.47;;;2.70;99.90;;;;;;5088130;28;20511;-90
2021/12/16 13:43:39;;;;;;;40.13;25.20;;;2.70;99.90;;;;;;5081148;28;20441;-89
2021/12/16 13:46:29;;;;;;;27.53;18.70;;;2.60;99.90;;;;;;5087828;28;20451;-90
2021/12/16 13:58:11;;;;;;;9.27;8.37;;;2.60;99.90;;;;;;5083476;28;20523;-91
2021/12/16 14:04:03;;;;;;;7.00;6.27;;;2.30;99.90;;;;;;5054383;28;20432;-90
2021/12/16 14:06:50;;;;;;;7.27;6.40;;;2.30;99.90;;;;;;5090383;28;20504;-90
2021/12/16 14:09:21;;;;;;;7.53;6.50;;;2.30;99.90;;;;;;5085419;28;20509;-89
2021/12/16 14:15:09;;;;;;;8.07;7.37;;;2.30;99.90;;;;;;5087730;28;20409;-90
2021/12/16 14:17:49;;;;;;;8.87;7.20;;;2.40;99.90;;;;;;5087661;28;20457;-89
2021/12/16 14:23:12;;;;;;;12.80;10.37;;;2.50;99.90;;;;;;5087524;28;20440;-90
2021/12/16 14:26:07;;;;;;;11.33;7.83;;;2.50;99.90;;;;;;5093046;28;20440;-90
2021/12/16 14:37:19;;;;;;;10.63;8.87;;;2.50;99.90;;;;;;5093128;28;20438;-90
2021/12/16 14:40:06;;;;;;;8.77;7.77;;;2.50;99.90;;;;;;5093566;28;20471;-90
2021/12/16 14:42:45;;;;;;;9.57;8.53;;;2.50;99.90;;;;;;5092009;28;20478;-90
2021/12/16 14:45:26;;;;;;;11.90;10.70;;;2.50;99.90;;;;;;5086947;27;20431;-89
2021/12/16 14:50:48;;;;;;;10.20;9.30;;;2.50;99.90;;;;;;5080512;27;20441;-90
2021/12/16 14:53:21;;;;;;;13.13;10.20;;;2.50;99.90;;;;;;5089567;27;20474;-89
2021/12/16 14:55:55;;;;;;;10.30;8.47;;;2.50;99.90;;;;;;5090570;28;20449;-89
2021/12/16 14:58:27;;;;;;;15.30;12.27;;;2.50;99.90;;;;;;5088822;28;20461;-89
2021/12/16 15:01:01;;;;;;;12.13;8.37;;;2.60;99.90;;;;;;5089523;28;20482;-89
2021/12/16 15:03:37;;;;;;;9.93;7.30;;;2.50;99.90;;;;;;5096933;28;20455;-89
2021/12/16 15:06:09;;;;;;;11.47;7.97;;;2.60;99.90;;;;;;5093536;28;20435;-89
2021/12/16 15:08:44;;;;;;;10.23;8.93;;;2.60;99.90;;;;;;5093628;28;20440;-89
2021/12/16 15:11:25;;;;;;;11.87;8.73;;;2.60;99.90;;;;;;5095972;28;20431;-90
2021/12/16 15:14:01;;;;;;;10.50;9.60;;;2.60;99.90;;;;;;5095545;28;20451;-90
2021/12/16 15:36:45;;;;;;;8.57;6.33;;;2.90;99.90;;;;;;5097425;28;20423;-90
2021/12/16 15:39:27;;;;;;;7.40;6.67;;;2.90;99.90;;;;;;5088838;28;20671;-91
2021/12/16 15:44:53;;;;;;;7.43;6.17;;;2.90;99.90;;;;;;5093584;28;20455;-90
2021/12/16 15:47:22;;;;;;;10.43;6.50;;;3.00;99.90;;;;;;5089578;28;20488;-90
2021/12/16 15:49:50;;;;;;;11.57;9.30;;;3.00;99.90;;;;;;5096476;28;20459;-89
2021/12/16 15:52:21;;;;;;;9.03;7.37;;;3.00;99.90;;;;;;5092820;28;20466;-91
2021/12/16 15:54:52;;;;;;;11.10;8.67;;;3.00;99.90;;;;;;5090481;28;20463;-92
2021/12/16 15:57:26;;;;;;;8.93;8.23;;;3.00;99.90;;;;;;5096316;28;20437;-90
2021/12/16 16:00:08;;;;;;;12.30;8.37;;;3.00;99.90;;;;;;5086849;28;20883;-92
2021/12/16 16:02:38;;;;;;;7.80;6.53;;;3.00;99.90;;;;;;5087063;28;20486;-90
2021/12/16 16:05:10;;;;;;;8.50;6.67;;;3.00;99.90;;;;;;5092265;28;20442;-91
2021/12/16 16:07:39;;;;;;;7.53;6.47;;;2.90;99.90;;;;;;5096435;27;20453;-90
2021/12/16 16:10:15;;;;;;;6.57;5.90;;;2.90;99.90;;;;;;5084435;28;20437;-89
2021/12/16 16:12:43;;;;;;;5.50;5.00;;;2.60;99.90;;;;;;5089423;28;20470;-89
2021/12/16 16:15:16;;;;;;;7.23;6.03;;;2.50;99.90;;;;;;5089600;28;20428;-90
2021/12/16 16:17:55;;;;;;;7.90;5.70;;;2.40;99.90;;;;;;5088562;28;20452;-91